sensor_id;sensor_type;location;lat;lon;timestamp;temperature;humidity
32215;DHT22;18708;53.124;23.190;2024-02-26T00:01:01;8.70;99.90
32215;DHT22;18708;53.124;23.190;2024-02-26T00:03:27;8.70;99.90
32215;DHT22;18708;53.124;23.190;2024-02-26T00:05:53;8.80;99.90
32215;DHT22;18708;53.124;23.190;2024-02-26T00:08:19;8.70;99.90
32215;DHT22;18708;53.124;23.190;2024-02-26T00:10:44;8.70;99.90
32215;DHT22;18708;53.124;23.190;2024-02-26T00:13:10;8.70;99.90
32215;DHT22;18708;53.124;23.190;2024-02-26T00:15:36;8.70;99.90
32215;DHT22;18708;53.124;23.190;2024-02-26T00:18:01;8.70;99.90
32215;DHT22;18708;53.124;23.190;2024-02-26T00:20:27;8.70;99.90
32215;DHT22;18708;53.124;23.190;2024-02-26T00:22:53;8.70;99.90
32215;DHT22;18708;53.124;23.190;2024-02-26T00:25:18;8.70;99.90
32215;DHT22;18708;53.124;23.190;2024-02-26T00:27:44;8.70;99.90
32215;DHT22;18708;53.124;23.190;2024-02-26T00:30:10;8.70;99.90
32215;DHT22;18708;53.124;23.190;2024-02-26T00:32:36;8.70;99.90
32215;DHT22;18708;53.124;23.190;2024-02-26T00:35:02;8.70;99.90
32215;DHT22;18708;53.124;23.190;2024-02-26T00:37:27;8.60;99.90
32215;DHT22;18708;53.124;23.190;2024-02-26T00:39:53;8.60;99.90
32215;DHT22;18708;53.124;23.190;2024-02-26T00:42:19;8.60;99.90
32215;DHT22;18708;53.124;23.190;2024-02-26T00:44:45;8.50;99.90
32215;DHT22;18708;53.124;23.190;2024-02-26T00:47:10;8.60;99.90
32215;DHT22;18708;53.124;23.190;2024-02-26T00:49:37;8.50;99.90
32215;DHT22;18708;53.124;23.190;2024-02-26T00:52:03;8.50;99.90
32215;DHT22;18708;53.124;23.190;2024-02-26T00:54:28;8.50;99.90
32215;DHT22;18708;53.124;23.190;2024-02-26T00:56:54;8.50;99.90
32215;DHT22;18708;53.124;23.190;2024-02-26T00:59:20;8.50;99.90
32215;DHT22;18708;53.124;23.190;2024-02-26T01:01:46;8.50;99.90
32215;DHT22;18708;53.124;23.190;2024-02-26T01:04:13;8.40;99.90
32215;DHT22;18708;53.124;23.190;2024-02-26T01:06:39;8.40;99.90
32215;DHT22;18708;53.124;23.190;2024-02-26T01:09:06;8.40;99.90
32215;DHT22;18708;53.124;23.190;2024-02-26T01:11:31;8.40;99.90
32215;DHT22;18708;53.124;23.190;2024-02-26T01:13:57;8.40;99.90
32215;DHT22;18708;53.124;23.190;2024-02-26T01:16:23;8.30;99.90
32215;DHT22;18708;53.124;23.190;2024-02-26T01:18:49;8.30;99.90
32215;DHT22;18708;53.124;23.190;2024-02-26T01:21:15;8.20;99.90
32215;DHT22;18708;53.124;23.190;2024-02-26T01:23:40;8.20;99.90
32215;DHT22;18708;53.124;23.190;2024-02-26T01:26:06;8.20;99.90
32215;DHT22;18708;53.124;23.190;2024-02-26T01:28:32;8.20;99.90
32215;DHT22;18708;53.124;23.190;2024-02-26T01:30:57;8.20;99.90
32215;DHT22;18708;53.124;23.190;2024-02-26T01:33:25;8.20;99.90
32215;DHT22;18708;53.124;23.190;2024-02-26T01:35:51;8.10;99.90
32215;DHT22;18708;53.124;23.190;2024-02-26T01:38:17;8.10;99.90
32215;DHT22;18708;53.124;23.190;2024-02-26T01:40:42;8.00;99.90
32215;DHT22;18708;53.124;23.190;2024-02-26T01:43:08;8.00;99.90
32215;DHT22;18708;53.124;23.190;2024-02-26T01:45:34;8.00;99.90
32215;DHT22;18708;53.124;23.190;2024-02-26T01:48:00;8.00;99.90
32215;DHT22;18708;53.124;23.190;2024-02-26T01:50:26;8.00;99.90
32215;DHT22;18708;53.124;23.190;2024-02-26T01:52:53;7.90;99.90
32215;DHT22;18708;53.124;23.190;2024-02-26T01:55:22;7.90;99.90
32215;DHT22;18708;53.124;23.190;2024-02-26T01:57:49;7.90;99.90
32215;DHT22;18708;53.124;23.190;2024-02-26T02:00:18;7.80;99.90
32215;DHT22;18708;53.124;23.190;2024-02-26T02:02:44;7.80;99.90
32215;DHT22;18708;53.124;23.190;2024-02-26T02:05:12;7.80;99.90
32215;DHT22;18708;53.124;23.190;2024-02-26T02:07:39;7.80;99.90
32215;DHT22;18708;53.124;23.190;2024-02-26T02:10:06;7.80;99.90
32215;DHT22;18708;53.124;23.190;2024-02-26T02:12:32;7.80;99.90
32215;DHT22;18708;53.124;23.190;2024-02-26T02:15:00;7.70;99.90
32215;DHT22;18708;53.124;23.190;2024-02-26T02:17:27;7.70;99.90
32215;DHT22;18708;53.124;23.190;2024-02-26T02:19:53;7.70;99.90
32215;DHT22;18708;53.124;23.190;2024-02-26T02:22:19;7.70;99.90
32215;DHT22;18708;53.124;23.190;2024-02-26T02:24:45;7.80;99.90
32215;DHT22;18708;53.124;23.190;2024-02-26T02:27:11;7.80;99.90
32215;DHT22;18708;53.124;23.190;2024-02-26T02:29:37;7.70;99.90
32215;DHT22;18708;53.124;23.190;2024-02-26T02:32:03;7.70;99.90
32215;DHT22;18708;53.124;23.190;2024-02-26T02:34:31;7.60;99.90
32215;DHT22;18708;53.124;23.190;2024-02-26T02:36:59;7.60;99.90
32215;DHT22;18708;53.124;23.190;2024-02-26T02:39:25;7.60;99.90
32215;DHT22;18708;53.124;23.190;2024-02-26T02:41:50;7.60;99.90
32215;DHT22;18708;53.124;23.190;2024-02-26T02:44:16;7.60;99.90
32215;DHT22;18708;53.124;23.190;2024-02-26T02:46:43;7.50;99.90
32215;DHT22;18708;53.124;23.190;2024-02-26T02:49:11;7.40;99.90
32215;DHT22;18708;53.124;23.190;2024-02-26T02:51:37;7.50;99.90
32215;DHT22;18708;53.124;23.190;2024-02-26T02:54:03;7.50;99.90
32215;DHT22;18708;53.124;23.190;2024-02-26T02:56:29;7.40;99.90
32215;DHT22;18708;53.124;23.190;2024-02-26T02:58:55;7.40;99.90
32215;DHT22;18708;53.124;23.190;2024-02-26T03:01:20;7.30;99.90
32215;DHT22;18708;53.124;23.190;2024-02-26T03:03:46;7.40;99.90
32215;DHT22;18708;53.124;23.190;2024-02-26T03:06:12;7.30;99.90
32215;DHT22;18708;53.124;23.190;2024-02-26T03:08:40;7.30;99.90
32215;DHT22;18708;53.124;23.190;2024-02-26T03:11:07;7.20;99.90
32215;DHT22;18708;53.124;23.190;2024-02-26T03:13:32;7.10;99.90
32215;DHT22;18708;53.124;23.190;2024-02-26T03:15:58;7.10;99.90
32215;DHT22;18708;53.124;23.190;2024-02-26T03:18:29;7.00;99.90
32215;DHT22;18708;53.124;23.190;2024-02-26T03:20:55;6.90;99.90
32215;DHT22;18708;53.124;23.190;2024-02-26T03:23:20;6.90;99.90
32215;DHT22;18708;53.124;23.190;2024-02-26T03:25:47;6.90;99.90
32215;DHT22;18708;53.124;23.190;2024-02-26T03:28:13;6.80;99.90
32215;DHT22;18708;53.124;23.190;2024-02-26T03:30:39;6.80;99.90
32215;DHT22;18708;53.124;23.190;2024-02-26T03:33:04;6.80;99.90
32215;DHT22;18708;53.124;23.190;2024-02-26T03:35:30;6.70;99.90
32215;DHT22;18708;53.124;23.190;2024-02-26T03:37:56;6.60;99.90
32215;DHT22;18708;53.124;23.190;2024-02-26T03:40:21;6.60;99.90
32215;DHT22;18708;53.124;23.190;2024-02-26T03:42:47;6.60;99.90
32215;DHT22;18708;53.124;23.190;2024-02-26T03:45:13;6.50;99.90
32215;DHT22;18708;53.124;23.190;2024-02-26T03:47:38;6.40;99.90
32215;DHT22;18708;53.124;23.190;2024-02-26T03:50:06;6.40;99.90
32215;DHT22;18708;53.124;23.190;2024-02-26T03:52:32;6.40;99.90
32215;DHT22;18708;53.124;23.190;2024-02-26T03:54:58;6.30;99.90
32215;DHT22;18708;53.124;23.190;2024-02-26T03:57:24;6.30;99.90
32215;DHT22;18708;53.124;23.190;2024-02-26T03:59:49;6.30;99.90
32215;DHT22;18708;53.124;23.190;2024-02-26T04:02:16;6.20;99.90
32215;DHT22;18708;53.124;23.190;2024-02-26T04:04:41;6.20;99.90
32215;DHT22;18708;53.124;23.190;2024-02-26T04:07:07;6.10;99.90
32215;DHT22;18708;53.124;23.190;2024-02-26T04:09:33;6.10;99.90
32215;DHT22;18708;53.124;23.190;2024-02-26T04:11:59;6.00;99.90
32215;DHT22;18708;53.124;23.190;2024-02-26T04:14:27;5.90;99.90
32215;DHT22;18708;53.124;23.190;2024-02-26T04:16:52;5.80;99.90
32215;DHT22;18708;53.124;23.190;2024-02-26T04:19:20;5.80;99.90
32215;DHT22;18708;53.124;23.190;2024-02-26T04:21:45;5.70;99.90
32215;DHT22;18708;53.124;23.190;2024-02-26T04:24:11;5.60;99.90
32215;DHT22;18708;53.124;23.190;2024-02-26T04:26:37;5.60;99.90
32215;DHT22;18708;53.124;23.190;2024-02-26T04:29:03;5.60;99.90
32215;DHT22;18708;53.124;23.190;2024-02-26T04:31:28;5.60;99.90
32215;DHT22;18708;53.124;23.190;2024-02-26T04:33:55;5.60;99.90
32215;DHT22;18708;53.124;23.190;2024-02-26T04:36:21;5.60;99.90
32215;DHT22;18708;53.124;23.190;2024-02-26T04:38:47;5.60;99.90
32215;DHT22;18708;53.124;23.190;2024-02-26T04:41:13;5.50;99.90
32215;DHT22;18708;53.124;23.190;2024-02-26T04:43:39;5.50;99.90
32215;DHT22;18708;53.124;23.190;2024-02-26T04:46:10;5.50;99.90
32215;DHT22;18708;53.124;23.190;2024-02-26T04:48:36;5.50;99.90
32215;DHT22;18708;53.124;23.190;2024-02-26T04:51:02;5.40;99.90
32215;DHT22;18708;53.124;23.190;2024-02-26T04:53:28;5.20;99.90
32215;DHT22;18708;53.124;23.190;2024-02-26T04:55:54;5.10;99.90
32215;DHT22;18708;53.124;23.190;2024-02-26T04:58:20;5.10;99.90
32215;DHT22;18708;53.124;23.190;2024-02-26T05:00:46;5.10;99.90
32215;DHT22;18708;53.124;23.190;2024-02-26T05:03:12;5.10;99.90
32215;DHT22;18708;53.124;23.190;2024-02-26T05:05:42;5.00;99.90
32215;DHT22;18708;53.124;23.190;2024-02-26T05:08:08;4.90;99.90
32215;DHT22;18708;53.124;23.190;2024-02-26T05:10:34;4.80;99.90
32215;DHT22;18708;53.124;23.190;2024-02-26T05:13:04;4.90;99.90
32215;DHT22;18708;53.124;23.190;2024-02-26T05:15:30;4.90;99.90
32215;DHT22;18708;53.124;23.190;2024-02-26T05:17:56;4.90;99.90
32215;DHT22;18708;53.124;23.190;2024-02-26T05:20:21;4.90;99.90
32215;DHT22;18708;53.124;23.190;2024-02-26T05:22:47;4.90;99.90
32215;DHT22;18708;53.124;23.190;2024-02-26T05:25:15;4.90;99.90
32215;DHT22;18708;53.124;23.190;2024-02-26T05:27:41;4.90;99.90
32215;DHT22;18708;53.124;23.190;2024-02-26T05:30:07;4.80;99.90
32215;DHT22;18708;53.124;23.190;2024-02-26T05:32:33;4.80;99.90
32215;DHT22;18708;53.124;23.190;2024-02-26T05:34:58;4.80;99.90
32215;DHT22;18708;53.124;23.190;2024-02-26T05:37:24;4.80;99.90
32215;DHT22;18708;53.124;23.190;2024-02-26T05:39:50;4.80;99.90
32215;DHT22;18708;53.124;23.190;2024-02-26T05:42:15;4.80;99.90
32215;DHT22;18708;53.124;23.190;2024-02-26T05:44:41;4.80;99.90
32215;DHT22;18708;53.124;23.190;2024-02-26T05:47:07;4.70;99.90
32215;DHT22;18708;53.124;23.190;2024-02-26T05:49:32;4.60;99.90
32215;DHT22;18708;53.124;23.190;2024-02-26T05:51:59;4.70;99.90
32215;DHT22;18708;53.124;23.190;2024-02-26T05:54:24;4.70;99.90
32215;DHT22;18708;53.124;23.190;2024-02-26T05:56:50;4.80;99.90
32215;DHT22;18708;53.124;23.190;2024-02-26T05:59:16;4.90;99.90
32215;DHT22;18708;53.124;23.190;2024-02-26T06:01:41;5.00;99.90
32215;DHT22;18708;53.124;23.190;2024-02-26T06:04:07;5.00;99.90
32215;DHT22;18708;53.124;23.190;2024-02-26T06:06:33;5.00;99.90
32215;DHT22;18708;53.124;23.190;2024-02-26T06:08:59;5.00;99.90
32215;DHT22;18708;53.124;23.190;2024-02-26T06:11:24;5.10;99.90
32215;DHT22;18708;53.124;23.190;2024-02-26T06:13:50;5.20;99.90
32215;DHT22;18708;53.124;23.190;2024-02-26T06:16:15;5.20;99.90
32215;DHT22;18708;53.124;23.190;2024-02-26T06:18:41;5.20;99.90
32215;DHT22;18708;53.124;23.190;2024-02-26T06:21:10;5.20;99.90
32215;DHT22;18708;53.124;23.190;2024-02-26T06:23:37;5.30;99.90
32215;DHT22;18708;53.124;23.190;2024-02-26T06:26:03;5.30;99.90
32215;DHT22;18708;53.124;23.190;2024-02-26T06:28:28;5.30;99.90
32215;DHT22;18708;53.124;23.190;2024-02-26T06:30:56;5.40;99.90
32215;DHT22;18708;53.124;23.190;2024-02-26T06:33:21;5.40;99.90
32215;DHT22;18708;53.124;23.190;2024-02-26T06:35:47;5.50;99.90
32215;DHT22;18708;53.124;23.190;2024-02-26T06:38:15;5.60;99.90
32215;DHT22;18708;53.124;23.190;2024-02-26T06:40:40;5.70;99.90
32215;DHT22;18708;53.124;23.190;2024-02-26T06:43:06;5.90;99.90
32215;DHT22;18708;53.124;23.190;2024-02-26T06:45:32;6.40;99.90
32215;DHT22;18708;53.124;23.190;2024-02-26T06:47:58;6.30;99.90
32215;DHT22;18708;53.124;23.190;2024-02-26T06:50:23;6.50;99.90
32215;DHT22;18708;53.124;23.190;2024-02-26T06:52:49;6.90;99.90
32215;DHT22;18708;53.124;23.190;2024-02-26T06:55:15;7.10;99.90
32215;DHT22;18708;53.124;23.190;2024-02-26T06:57:40;7.10;99.90
32215;DHT22;18708;53.124;23.190;2024-02-26T07:00:06;7.30;99.90
32215;DHT22;18708;53.124;23.190;2024-02-26T07:02:32;7.50;99.90
32215;DHT22;18708;53.124;23.190;2024-02-26T07:04:58;7.60;99.90
32215;DHT22;18708;53.124;23.190;2024-02-26T07:07:24;7.70;99.90
32215;DHT22;18708;53.124;23.190;2024-02-26T07:09:50;7.90;99.90
32215;DHT22;18708;53.124;23.190;2024-02-26T07:12:16;8.10;99.90
32215;DHT22;18708;53.124;23.190;2024-02-26T07:14:42;8.20;99.90
32215;DHT22;18708;53.124;23.190;2024-02-26T07:17:08;8.30;99.90
32215;DHT22;18708;53.124;23.190;2024-02-26T07:19:34;8.30;99.90
32215;DHT22;18708;53.124;23.190;2024-02-26T07:21:59;8.30;99.90
32215;DHT22;18708;53.124;23.190;2024-02-26T07:24:27;8.30;99.90
32215;DHT22;18708;53.124;23.190;2024-02-26T07:26:53;8.40;99.90
32215;DHT22;18708;53.124;23.190;2024-02-26T07:29:22;8.40;99.90
32215;DHT22;18708;53.124;23.190;2024-02-26T07:31:47;8.40;99.90
32215;DHT22;18708;53.124;23.190;2024-02-26T07:34:13;8.50;99.90
32215;DHT22;18708;53.124;23.190;2024-02-26T07:36:39;8.50;99.90
32215;DHT22;18708;53.124;23.190;2024-02-26T07:39:05;8.50;99.90
32215;DHT22;18708;53.124;23.190;2024-02-26T07:41:31;8.50;99.90
32215;DHT22;18708;53.124;23.190;2024-02-26T07:43:56;8.60;99.90
32215;DHT22;18708;53.124;23.190;2024-02-26T07:46:22;8.60;99.90
32215;DHT22;18708;53.124;23.190;2024-02-26T07:48:48;8.60;99.90
32215;DHT22;18708;53.124;23.190;2024-02-26T07:51:14;8.60;99.90
32215;DHT22;18708;53.124;23.190;2024-02-26T07:53:40;8.60;99.90
32215;DHT22;18708;53.124;23.190;2024-02-26T07:56:06;8.70;99.90
32215;DHT22;18708;53.124;23.190;2024-02-26T07:58:32;8.70;99.90
32215;DHT22;18708;53.124;23.190;2024-02-26T08:00:58;8.70;99.90
32215;DHT22;18708;53.124;23.190;2024-02-26T08:03:24;8.80;99.90
32215;DHT22;18708;53.124;23.190;2024-02-26T08:05:51;8.80;99.90
32215;DHT22;18708;53.124;23.190;2024-02-26T08:08:17;8.80;99.90
32215;DHT22;18708;53.124;23.190;2024-02-26T08:10:42;8.90;99.90
32215;DHT22;18708;53.124;23.190;2024-02-26T08:13:08;8.90;99.90
32215;DHT22;18708;53.124;23.190;2024-02-26T08:15:35;9.00;99.90
32215;DHT22;18708;53.124;23.190;2024-02-26T08:18:02;9.00;99.90
32215;DHT22;18708;53.124;23.190;2024-02-26T08:20:29;9.00;99.90
32215;DHT22;18708;53.124;23.190;2024-02-26T08:22:55;9.00;99.90
32215;DHT22;18708;53.124;23.190;2024-02-26T08:25:22;9.00;99.90
32215;DHT22;18708;53.124;23.190;2024-02-26T08:27:47;9.00;99.90
32215;DHT22;18708;53.124;23.190;2024-02-26T08:30:14;9.10;99.90
32215;DHT22;18708;53.124;23.190;2024-02-26T08:32:43;9.10;99.90
32215;DHT22;18708;53.124;23.190;2024-02-26T08:35:08;9.20;99.90
32215;DHT22;18708;53.124;23.190;2024-02-26T08:37:34;9.20;99.90
32215;DHT22;18708;53.124;23.190;2024-02-26T08:40:00;9.20;99.90
32215;DHT22;18708;53.124;23.190;2024-02-26T08:42:25;9.30;99.90
32215;DHT22;18708;53.124;23.190;2024-02-26T08:44:51;9.30;99.90
32215;DHT22;18708;53.124;23.190;2024-02-26T08:47:17;9.40;99.90
32215;DHT22;18708;53.124;23.190;2024-02-26T08:49:44;9.40;99.90
32215;DHT22;18708;53.124;23.190;2024-02-26T08:52:10;9.40;99.90
32215;DHT22;18708;53.124;23.190;2024-02-26T08:54:36;9.40;99.90
32215;DHT22;18708;53.124;23.190;2024-02-26T08:57:01;9.50;99.90
32215;DHT22;18708;53.124;23.190;2024-02-26T08:59:28;9.60;99.90
32215;DHT22;18708;53.124;23.190;2024-02-26T09:01:54;9.70;99.90
32215;DHT22;18708;53.124;23.190;2024-02-26T09:04:19;9.70;99.90
32215;DHT22;18708;53.124;23.190;2024-02-26T09:06:46;9.80;99.90
32215;DHT22;18708;53.124;23.190;2024-02-26T09:09:12;9.80;99.90
32215;DHT22;18708;53.124;23.190;2024-02-26T09:11:37;9.80;99.90
32215;DHT22;18708;53.124;23.190;2024-02-26T09:14:03;9.80;99.90
32215;DHT22;18708;53.124;23.190;2024-02-26T09:16:29;9.90;99.90
32215;DHT22;18708;53.124;23.190;2024-02-26T09:18:56;9.90;99.90
32215;DHT22;18708;53.124;23.190;2024-02-26T09:21:21;9.90;99.90
32215;DHT22;18708;53.124;23.190;2024-02-26T09:23:52;10.00;99.90
32215;DHT22;18708;53.124;23.190;2024-02-26T09:26:17;10.20;99.90
32215;DHT22;18708;53.124;23.190;2024-02-26T09:28:45;10.90;99.90
32215;DHT22;18708;53.124;23.190;2024-02-26T09:31:10;12.10;99.90
32215;DHT22;18708;53.124;23.190;2024-02-26T09:33:36;12.00;99.90
32215;DHT22;18708;53.124;23.190;2024-02-26T09:36:03;11.80;99.90
32215;DHT22;18708;53.124;23.190;2024-02-26T09:38:29;11.90;99.90
32215;DHT22;18708;53.124;23.190;2024-02-26T09:40:57;12.10;1.00
32215;DHT22;18708;53.124;23.190;2024-02-26T09:43:23;11.80;1.00
32215;DHT22;18708;53.124;23.190;2024-02-26T09:45:54;11.90;1.00
32215;DHT22;18708;53.124;23.190;2024-02-26T09:48:21;11.80;1.00
32215;DHT22;18708;53.124;23.190;2024-02-26T09:50:49;11.60;1.00
32215;DHT22;18708;53.124;23.190;2024-02-26T09:53:14;11.70;1.00
32215;DHT22;18708;53.124;23.190;2024-02-26T09:55:40;11.70;1.00
32215;DHT22;18708;53.124;23.190;2024-02-26T09:58:07;11.60;1.00
32215;DHT22;18708;53.124;23.190;2024-02-26T10:00:38;11.40;1.00
32215;DHT22;18708;53.124;23.190;2024-02-26T10:03:05;11.30;1.00
32215;DHT22;18708;53.124;23.190;2024-02-26T10:05:36;11.30;1.00
32215;DHT22;18708;53.124;23.190;2024-02-26T10:08:04;11.40;1.00
32215;DHT22;18708;53.124;23.190;2024-02-26T10:10:30;11.40;1.00
32215;DHT22;18708;53.124;23.190;2024-02-26T10:12:59;11.50;1.00
32215;DHT22;18708;53.124;23.190;2024-02-26T10:15:25;11.50;1.00
32215;DHT22;18708;53.124;23.190;2024-02-26T10:17:51;11.60;1.00
32215;DHT22;18708;53.124;23.190;2024-02-26T10:20:18;11.80;1.00
32215;DHT22;18708;53.124;23.190;2024-02-26T10:22:44;11.50;1.00
32215;DHT22;18708;53.124;23.190;2024-02-26T10:25:10;11.60;1.00
32215;DHT22;18708;53.124;23.190;2024-02-26T10:27:36;11.90;1.00
32215;DHT22;18708;53.124;23.190;2024-02-26T10:30:03;11.90;99.90
32215;DHT22;18708;53.124;23.190;2024-02-26T10:32:30;11.90;99.90
32215;DHT22;18708;53.124;23.190;2024-02-26T10:34:56;12.10;99.90
32215;DHT22;18708;53.124;23.190;2024-02-26T10:37:23;12.50;53.70
32215;DHT22;18708;53.124;23.190;2024-02-26T10:39:48;13.00;1.00
32215;DHT22;18708;53.124;23.190;2024-02-26T10:42:14;14.40;99.90
32215;DHT22;18708;53.124;23.190;2024-02-26T10:44:41;13.60;1.00
32215;DHT22;18708;53.124;23.190;2024-02-26T10:47:09;13.40;1.00
32215;DHT22;18708;53.124;23.190;2024-02-26T10:49:35;13.00;1.00
32215;DHT22;18708;53.124;23.190;2024-02-26T10:52:01;13.10;1.00
32215;DHT22;18708;53.124;23.190;2024-02-26T10:54:29;12.80;1.00
32215;DHT22;18708;53.124;23.190;2024-02-26T10:56:57;12.60;1.00
32215;DHT22;18708;53.124;23.190;2024-02-26T10:59:24;13.50;1.00
32215;DHT22;18708;53.124;23.190;2024-02-26T11:01:50;13.10;1.00
32215;DHT22;18708;53.124;23.190;2024-02-26T11:04:17;14.50;8.80
32215;DHT22;18708;53.124;23.190;2024-02-26T11:06:44;15.00;1.00
32215;DHT22;18708;53.124;23.190;2024-02-26T11:09:12;14.80;1.00
32215;DHT22;18708;53.124;23.190;2024-02-26T11:11:38;13.80;1.00
32215;DHT22;18708;53.124;23.190;2024-02-26T11:14:06;13.80;1.00
32215;DHT22;18708;53.124;23.190;2024-02-26T11:16:35;13.60;1.00
32215;DHT22;18708;53.124;23.190;2024-02-26T11:19:02;12.80;1.00
32215;DHT22;18708;53.124;23.190;2024-02-26T11:21:28;13.20;1.00
32215;DHT22;18708;53.124;23.190;2024-02-26T11:24:13;13.80;1.00
32215;DHT22;18708;53.124;23.190;2024-02-26T11:27:01;14.40;1.00
32215;DHT22;18708;53.124;23.190;2024-02-26T11:29:37;13.70;1.00
32215;DHT22;18708;53.124;23.190;2024-02-26T11:32:04;13.70;1.00
32215;DHT22;18708;53.124;23.190;2024-02-26T11:34:30;14.10;1.00
32215;DHT22;18708;53.124;23.190;2024-02-26T11:36:56;14.70;1.00
32215;DHT22;18708;53.124;23.190;2024-02-26T11:39:23;13.60;1.00
32215;DHT22;18708;53.124;23.190;2024-02-26T11:41:50;13.70;1.00
32215;DHT22;18708;53.124;23.190;2024-02-26T11:44:29;14.20;1.00
32215;DHT22;18708;53.124;23.190;2024-02-26T11:46:56;14.40;1.00
32215;DHT22;18708;53.124;23.190;2024-02-26T11:51:58;14.30;1.00
32215;DHT22;18708;53.124;23.190;2024-02-26T11:54:53;14.10;1.00
32215;DHT22;18708;53.124;23.190;2024-02-26T11:57:39;14.10;1.00
32215;DHT22;18708;53.124;23.190;2024-02-26T12:02:55;16.30;1.00
32215;DHT22;18708;53.124;23.190;2024-02-26T12:05:27;16.80;99.90
32215;DHT22;18708;53.124;23.190;2024-02-26T12:08:04;15.80;99.90
32215;DHT22;18708;53.124;23.190;2024-02-26T12:10:33;16.10;1.00
32215;DHT22;18708;53.124;23.190;2024-02-26T12:13:16;15.80;99.90
32215;DHT22;18708;53.124;23.190;2024-02-26T12:18:18;16.00;99.90
32215;DHT22;18708;53.124;23.190;2024-02-26T12:20:43;17.20;99.90
32215;DHT22;18708;53.124;23.190;2024-02-26T12:23:15;16.60;99.90
32215;DHT22;18708;53.124;23.190;2024-02-26T12:25:43;17.70;99.90
32215;DHT22;18708;53.124;23.190;2024-02-26T12:28:09;16.70;99.90
32215;DHT22;18708;53.124;23.190;2024-02-26T12:30:35;15.60;99.90
32215;DHT22;18708;53.124;23.190;2024-02-26T12:33:01;15.90;99.90
32215;DHT22;18708;53.124;23.190;2024-02-26T12:35:28;14.80;99.90
32215;DHT22;18708;53.124;23.190;2024-02-26T12:37:54;14.90;99.90
32215;DHT22;18708;53.124;23.190;2024-02-26T12:40:21;15.10;99.90
32215;DHT22;18708;53.124;23.190;2024-02-26T12:42:47;17.10;99.90
32215;DHT22;18708;53.124;23.190;2024-02-26T12:45:13;16.10;99.90
32215;DHT22;18708;53.124;23.190;2024-02-26T12:47:42;15.30;99.90
32215;DHT22;18708;53.124;23.190;2024-02-26T12:50:09;14.50;99.90
32215;DHT22;18708;53.124;23.190;2024-02-26T12:52:37;15.20;99.90
32215;DHT22;18708;53.124;23.190;2024-02-26T12:55:05;16.30;99.90
32215;DHT22;18708;53.124;23.190;2024-02-26T12:57:38;16.50;99.90
32215;DHT22;18708;53.124;23.190;2024-02-26T13:00:08;15.60;99.90
32215;DHT22;18708;53.124;23.190;2024-02-26T13:02:36;15.00;99.90
32215;DHT22;18708;53.124;23.190;2024-02-26T13:05:03;14.90;99.90
32215;DHT22;18708;53.124;23.190;2024-02-26T13:07:30;15.30;99.90
32215;DHT22;18708;53.124;23.190;2024-02-26T13:09:55;14.50;99.90
32215;DHT22;18708;53.124;23.190;2024-02-26T13:12:21;14.30;99.90
32215;DHT22;18708;53.124;23.190;2024-02-26T13:14:47;14.10;99.90
32215;DHT22;18708;53.124;23.190;2024-02-26T13:17:13;14.20;99.90
32215;DHT22;18708;53.124;23.190;2024-02-26T13:19:49;13.80;99.90
32215;DHT22;18708;53.124;23.190;2024-02-26T13:22:15;13.90;99.90
32215;DHT22;18708;53.124;23.190;2024-02-26T13:24:42;14.30;99.90
32215;DHT22;18708;53.124;23.190;2024-02-26T13:27:08;14.30;99.90
32215;DHT22;18708;53.124;23.190;2024-02-26T13:29:34;13.70;99.90
32215;DHT22;18708;53.124;23.190;2024-02-26T13:31:59;13.30;99.90
32215;DHT22;18708;53.124;23.190;2024-02-26T13:34:28;13.20;1.00
32215;DHT22;18708;53.124;23.190;2024-02-26T13:36:56;13.30;1.00
32215;DHT22;18708;53.124;23.190;2024-02-26T13:39:26;13.10;1.00
32215;DHT22;18708;53.124;23.190;2024-02-26T13:41:52;13.10;1.00
32215;DHT22;18708;53.124;23.190;2024-02-26T13:44:19;13.30;1.00
32215;DHT22;18708;53.124;23.190;2024-02-26T13:46:45;13.30;1.00
32215;DHT22;18708;53.124;23.190;2024-02-26T13:49:10;13.50;1.00
32215;DHT22;18708;53.124;23.190;2024-02-26T13:51:37;13.20;1.00
32215;DHT22;18708;53.124;23.190;2024-02-26T13:54:03;13.10;1.00
32215;DHT22;18708;53.124;23.190;2024-02-26T13:56:30;13.50;1.00
32215;DHT22;18708;53.124;23.190;2024-02-26T13:58:56;13.60;1.00
32215;DHT22;18708;53.124;23.190;2024-02-26T14:01:21;13.40;1.00
32215;DHT22;18708;53.124;23.190;2024-02-26T14:03:47;13.20;1.00
32215;DHT22;18708;53.124;23.190;2024-02-26T14:06:14;13.00;1.00
32215;DHT22;18708;53.124;23.190;2024-02-26T14:08:39;12.80;1.00
32215;DHT22;18708;53.124;23.190;2024-02-26T14:11:06;12.70;1.00
32215;DHT22;18708;53.124;23.190;2024-02-26T14:13:32;12.60;1.00
32215;DHT22;18708;53.124;23.190;2024-02-26T14:15:58;12.50;1.00
32215;DHT22;18708;53.124;23.190;2024-02-26T14:18:24;12.40;1.00
32215;DHT22;18708;53.124;23.190;2024-02-26T14:20:50;12.40;1.00
32215;DHT22;18708;53.124;23.190;2024-02-26T14:23:16;12.30;1.00
32215;DHT22;18708;53.124;23.190;2024-02-26T14:25:42;12.50;1.00
32215;DHT22;18708;53.124;23.190;2024-02-26T14:28:08;12.60;1.00
32215;DHT22;18708;53.124;23.190;2024-02-26T14:30:34;12.70;1.00
32215;DHT22;18708;53.124;23.190;2024-02-26T14:33:00;12.80;1.00
32215;DHT22;18708;53.124;23.190;2024-02-26T14:35:26;12.90;1.00
32215;DHT22;18708;53.124;23.190;2024-02-26T14:37:52;12.60;1.00
32215;DHT22;18708;53.124;23.190;2024-02-26T14:40:17;12.50;1.00
32215;DHT22;18708;53.124;23.190;2024-02-26T14:42:44;12.50;1.00
32215;DHT22;18708;53.124;23.190;2024-02-26T14:45:10;12.40;1.00
32215;DHT22;18708;53.124;23.190;2024-02-26T14:47:37;12.50;1.00
32215;DHT22;18708;53.124;23.190;2024-02-26T14:50:02;12.40;1.00
32215;DHT22;18708;53.124;23.190;2024-02-26T14:52:28;12.40;1.00
32215;DHT22;18708;53.124;23.190;2024-02-26T14:54:54;12.10;1.00
32215;DHT22;18708;53.124;23.190;2024-02-26T14:57:20;12.10;1.00
32215;DHT22;18708;53.124;23.190;2024-02-26T14:59:45;12.00;1.00
32215;DHT22;18708;53.124;23.190;2024-02-26T15:02:11;11.90;1.00
32215;DHT22;18708;53.124;23.190;2024-02-26T15:04:37;11.80;1.00
32215;DHT22;18708;53.124;23.190;2024-02-26T15:07:03;11.80;1.00
32215;DHT22;18708;53.124;23.190;2024-02-26T15:09:29;11.70;61.50
32215;DHT22;18708;53.124;23.190;2024-02-26T15:11:55;11.70;99.90
32215;DHT22;18708;53.124;23.190;2024-02-26T15:14:23;11.60;99.90
32215;DHT22;18708;53.124;23.190;2024-02-26T15:16:49;11.50;1.00
32215;DHT22;18708;53.124;23.190;2024-02-26T15:19:14;11.50;1.00
32215;DHT22;18708;53.124;23.190;2024-02-26T15:21:46;11.40;1.00
32215;DHT22;18708;53.124;23.190;2024-02-26T15:24:12;11.30;99.90
32215;DHT22;18708;53.124;23.190;2024-02-26T15:26:38;11.30;1.00
32215;DHT22;18708;53.124;23.190;2024-02-26T15:29:07;11.20;1.00
32215;DHT22;18708;53.124;23.190;2024-02-26T15:31:34;11.10;1.00
32215;DHT22;18708;53.124;23.190;2024-02-26T15:34:01;11.00;99.90